X  Schließen METAR Luftfahrt Wetterdaten     EDVE Braunschweig-Wolfsburg Airport
Temperatur
11°C Temperatur
8°C Taupunkt
82% Feuchtigkeit



Wind
3 KM/S
2 MPS
1 M/S
2 KTS



Kein Wind
Nord
Aktuelle Wetterlage

Teilweise bewölkt Teilweise bewölkt
Luftdruck 1012.92 (hPa) - 29.91 (inHg)
Sichtweite 6.2 (Meile) - 10 (Km)
Flughafen
Flughafen Code EDVE

Position : Braunschweig-Wolfsburg Airport
Entfernung: 35 (Km)

Metar:
EDVE 250420Z AUTO VRB02KT 9999 // FEW091/// 11/08 Q1013

Zeit: 25-05-2022 06:20 CEST